Time;durP1;ratioP1;P1;durP2;ratioP2;P2;SDS_P1;SDS_P2;PMS_P1;PMS_P2;Temp;Humidity;BMP_temperature;BMP_pressure;BME280_temperature;BME280_humidity;BME280_pressure;Samples;Min_cycle;Max_cycle;Signal;HPM_P1;HPM_P2
2022/05/23 00:02:08;;;;;;;5.43;1.90;;;;;;;14.85;57.62;100064.28;4963577;28;96797;-80
2022/05/23 00:04:34;;;;;;;5.53;2.50;;;;;;;14.80;58.07;100053.09;4970736;28;97650;-80
2022/05/23 00:06:59;;;;;;;3.25;2.03;;;;;;;14.81;57.93;100057.47;4972948;28;102095;-81
2022/05/23 00:09:25;;;;;;;3.22;2.00;;;;;;;14.76;57.98;100061.31;4962634;28;101552;-80
2022/05/23 00:11:52;;;;;;;6.35;2.10;;;;;;;14.74;57.79;100057.88;4954335;28;97137;-81
2022/05/23 00:14:17;;;;;;;5.85;2.00;;;;;;;14.69;58.02;100058.16;4970487;28;97235;-81
2022/05/23 00:16:46;;;;;;;3.13;1.90;;;;;;;14.58;58.09;100039.41;4970831;28;101103;-80
2022/05/23 00:19:12;;;;;;;6.80;2.63;;;;;;;14.66;58.15;100053.88;4962743;28;101120;-81
2022/05/23 00:21:40;;;;;;;6.47;2.38;;;;;;;14.58;58.50;100053.44;4970481;28;97202;-81
2022/05/23 00:24:07;;;;;;;4.82;2.40;;;;;;;14.44;58.49;100059.44;4986682;28;96941;-81
2022/05/23 00:26:33;;;;;;;5.38;2.40;;;;;;;14.55;58.39;100063.34;4970326;28;98855;-81
2022/05/23 00:28:58;;;;;;;3.65;2.22;;;;;;;14.52;57.96;100045.88;4967935;28;97594;-81
2022/05/23 00:31:24;;;;;;;5.68;2.25;;;;;;;14.58;58.17;100063.16;4969856;28;96767;-81
2022/05/23 00:36:34;;;;;;;4.93;2.67;;;;;;;14.40;58.28;100050.00;4987593;28;98428;-80
2022/05/23 00:39:00;;;;;;;6.05;2.30;;;;;;;14.53;57.94;100068.69;4986998;28;98245;-81
2022/05/23 00:44:20;;;;;;;4.75;2.55;;;;;;;14.38;58.05;100037.81;4986628;28;97160;-80
2022/05/23 00:46:57;;;;;;;4.78;2.47;;;;;;;14.41;58.29;100071.97;4987683;28;97609;-80
2022/05/23 00:49:27;;;;;;;6.60;3.08;;;;;;;14.34;58.38;100065.28;4969446;28;101301;-80
2022/05/23 00:51:53;;;;;;;5.70;2.50;;;;;;;14.34;58.14;100060.88;4969664;28;97340;-80
2022/05/23 00:54:20;;;;;;;8.18;3.22;;;;;;;14.23;58.43;100060.59;4977162;28;98043;-80
2022/05/23 00:56:48;;;;;;;5.35;2.63;;;;;;;14.15;59.30;100061.00;4987925;28;97738;-80
2022/05/23 00:59:17;;;;;;;4.25;3.13;;;;;;;14.15;59.05;100060.16;4973054;28;97475;-80
2022/05/23 01:01:43;;;;;;;6.40;3.33;;;;;;;14.22;58.84;100058.88;4967540;28;97972;-80
2022/05/23 01:04:09;;;;;;;8.98;3.25;;;;;;;14.09;58.68;100057.84;4957595;28;96981;-81
2022/05/23 01:06:35;;;;;;;6.35;3.38;;;;;;;14.02;59.16;100047.63;4957390;28;101231;-80
2022/05/23 01:09:01;;;;;;;6.70;3.65;;;;;;;13.92;59.74;100035.81;4954149;28;101246;-80
2022/05/23 01:11:27;;;;;;;6.57;3.20;;;;;;;13.88;59.83;100046.63;4970340;28;97266;-80
2022/05/23 01:13:56;;;;;;;7.05;3.20;;;;;;;13.60;59.93;100016.38;4956959;28;96934;-81
2022/05/23 01:16:23;;;;;;;9.45;3.08;;;;;;;13.70;60.53;100041.38;4973051;28;101508;-80
2022/05/23 01:18:50;;;;;;;5.78;3.25;;;;;;;13.81;60.10;100049.56;4970428;28;101140;-80
2022/05/23 01:21:29;;;;;;;7.22;3.63;;;;;;;13.75;60.67;100043.75;4969400;28;97294;-80
2022/05/23 01:24:05;;;;;;;7.88;3.40;;;;;;;13.45;60.23;100022.44;4957010;28;97068;-81
2022/05/23 01:26:37;;;;;;;8.40;3.28;;;;;;;13.57;60.25;100043.75;4973751;28;102231;-80
2022/05/23 01:29:11;;;;;;;11.18;5.13;;;;;;;13.55;60.92;100042.97;4974484;28;99057;-80
2022/05/23 01:31:44;;;;;;;8.75;3.75;;;;;;;13.54;60.61;100041.28;4966051;28;96882;-81
2022/05/23 01:34:36;;;;;;;8.05;3.60;;;;;;;13.33;60.73;100034.47;4988508;28;97348;-80
2022/05/23 01:37:08;;;;;;;5.50;3.38;;;;;;;13.60;60.48;100042.75;4958232;28;99212;-79
2022/05/23 01:39:38;;;;;;;7.05;3.40;;;;;;;13.57;60.47;100020.03;4983161;28;100997;-80
2022/05/23 01:42:05;;;;;;;8.77;3.33;;;;;;;13.63;60.67;100039.13;4972848;28;97573;-80
2022/05/23 01:44:32;;;;;;;6.65;4.25;;;;;;;13.41;61.07;100021.75;4989094;28;97343;-80
2022/05/23 01:47:13;;;;;;;8.38;3.05;;;;;;;13.41;60.94;100020.88;4959189;28;101939;-80
2022/05/23 01:49:59;;;;;;;8.55;3.53;;;;;;;13.35;60.97;100014.13;4956436;28;101936;-80
2022/05/23 01:52:43;;;;;;;7.15;3.17;;;;;;;13.37;61.20;100030.72;4961113;28;96827;-81
2022/05/23 01:55:12;;;;;;;5.68;2.85;;;;;;;13.53;60.42;100025.56;4957538;28;96898;-80
2022/05/23 01:57:43;;;;;;;4.57;2.90;;;;;;;13.47;60.93;100026.72;4957480;28;100286;-81
2022/05/23 02:02:54;;;;;;;6.03;3.28;;;;;;;13.39;61.07;100022.75;4974875;28;97004;-81
2022/05/23 02:05:23;;;;;;;4.68;2.97;;;;;;;13.24;61.10;99996.22;4968888;28;97394;-80
2022/05/23 02:07:48;;;;;;;6.00;3.53;;;;;;;13.28;61.02;100000.41;4968699;28;101178;-80
2022/05/23 02:10:14;;;;;;;10.05;4.25;;;;;;;13.24;61.20;100008.53;5001318;28;101450;-80
2022/05/23 02:12:47;;;;;;;5.70;3.35;;;;;;;13.17;61.36;99997.41;4957690;28;97018;-81
2022/05/23 02:15:17;;;;;;;10.00;3.70;;;;;;;13.27;60.67;100005.78;4975424;28;96906;-81
2022/05/23 02:17:45;;;;;;;7.80;3.45;;;;;;;13.13;60.76;99991.47;4971896;28;98260;-80
2022/05/23 02:20:14;;;;;;;9.32;2.97;;;;;;;12.89;61.14;99982.16;4949874;28;101511;-80
2022/05/23 02:22:40;;;;;;;8.18;3.15;;;;;;;12.98;62.18;100001.91;4955821;28;96843;-80
2022/05/23 02:25:17;;;;;;;6.82;3.72;;;;;;;12.97;61.59;99998.41;4988620;28;97028;-80
2022/05/23 02:27:43;;;;;;;6.93;3.72;;;;;;;13.03;61.47;100000.75;4971821;28;101150;-80
2022/05/23 02:30:09;;;;;;;7.00;3.05;;;;;;;13.01;61.28;100007.88;4972036;28;101358;-79
2022/05/23 02:32:35;;;;;;;6.18;3.42;;;;;;;12.75;61.79;99989.84;4955266;28;97406;-79
2022/05/23 02:35:07;;;;;;;5.90;3.20;;;;;;;12.95;62.08;100005.56;4954715;28;97494;-80
2022/05/23 02:37:32;;;;;;;6.93;2.90;;;;;;;12.78;62.09;100009.00;4984206;28;98577;-80
2022/05/23 02:40:00;;;;;;;6.55;3.47;;;;;;;12.77;62.31;100012.56;4961984;28;101540;-81
2022/05/23 02:42:27;;;;;;;10.32;3.78;;;;;;;12.71;62.46;100006.72;4982854;28;96798;-80
2022/05/23 02:44:53;;;;;;;4.90;3.30;;;;;;;12.81;61.80;100008.00;4972835;28;97142;-80
2022/05/23 02:47:22;;;;;;;7.88;3.65;;;;;;;12.57;62.23;99981.06;4971827;28;101530;-80
2022/05/23 02:49:50;;;;;;;7.40;3.70;;;;;;;12.59;62.51;99993.19;4971817;28;101450;-81
2022/05/23 02:52:35;;;;;;;7.68;3.88;;;;;;;12.54;62.30;99989.09;4985325;28;97265;-80
2022/05/23 02:55:27;;;;;;;8.82;3.50;;;;;;;12.56;62.51;99995.97;4974227;28;98904;-80
2022/05/23 02:57:57;;;;;;;12.60;4.20;;;;;;;12.60;62.18;100009.88;4966366;28;100932;-80
2022/05/23 03:00:26;;;;;;;9.68;3.83;;;;;;;12.75;61.55;99997.75;4971348;28;100551;-80
2022/05/23 03:03:02;;;;;;;7.15;3.70;;;;;;;12.74;61.58;100003.94;4945304;28;96986;-80
2022/05/23 03:05:48;;;;;;;7.53;3.38;;;;;;;12.62;62.28;100008.88;4974301;28;97155;-80
2022/05/23 03:08:20;;;;;;;7.65;3.53;;;;;;;12.53;62.36;100003.19;4973264;28;101448;-80
2022/05/23 03:10:48;;;;;;;8.73;3.72;;;;;;;12.40;63.23;100005.53;4955655;28;100371;-80
2022/05/23 03:13:14;;;;;;;10.68;3.80;;;;;;;12.21;63.58;99987.09;4971543;28;96869;-80
2022/05/23 03:15:40;;;;;;;11.25;4.28;;;;;;;12.57;62.47;100010.88;4960634;28;96891;-81
2022/05/23 03:18:06;;;;;;;7.50;4.03;;;;;;;12.52;62.47;100006.75;4969412;28;101808;-81
2022/05/23 03:20:35;;;;;;;7.65;3.67;;;;;;;12.59;62.39;100010.78;4954179;28;101644;-81
2022/05/23 03:28:36;;;;;;;9.52;3.55;;;;;;;12.55;62.31;100015.34;4988157;28;99160;-81
2022/05/23 03:31:05;;;;;;;7.57;3.60;;;;;;;12.39;62.99;100001.19;4975000;28;101471;-83
2022/05/23 03:33:32;;;;;;;6.95;3.95;;;;;;;12.55;62.93;100012.72;4954804;28;97065;-82
2022/05/23 03:35:58;;;;;;;9.05;4.00;;;;;;;12.79;62.19;100020.38;4955444;28;96946;-81
2022/05/23 03:38:25;;;;;;;8.20;3.80;;;;;;;12.86;61.96;100027.91;4959354;28;99713;-81
2022/05/23 03:40:51;;;;;;;9.45;4.30;;;;;;;12.91;62.11;100023.28;4954773;28;101524;-81
2022/05/23 03:43:16;;;;;;;11.50;4.30;;;;;;;12.75;62.17;100018.84;4951115;28;97075;-80
2022/05/23 03:45:43;;;;;;;7.38;4.38;;;;;;;12.74;62.35;100025.00;5001410;28;96859;-81
2022/05/23 03:48:11;;;;;;;12.63;3.88;;;;;;;12.68;62.38;100012.97;4973111;28;98448;-80
2022/05/23 03:50:37;;;;;;;8.18;4.47;;;;;;;12.99;61.72;100022.91;4970587;28;101025;-80
2022/05/23 03:53:06;;;;;;;9.18;4.20;;;;;;;13.04;61.50;100020.06;4955405;28;97173;-80
2022/05/23 03:55:35;;;;;;;10.10;4.37;;;;;;;12.91;62.01;100025.94;4971538;28;97204;-80
2022/05/23 03:58:11;;;;;;;6.95;4.03;;;;;;;13.11;61.93;100034.63;4967578;28;100274;-80
2022/05/23 04:00:37;;;;;;;9.40;4.18;;;;;;;13.26;61.76;100027.78;4983647;28;97745;-81
2022/05/23 04:03:02;;;;;;;8.82;4.43;;;;;;;13.33;61.29;100032.69;4957997;28;96940;-81
2022/05/23 04:05:28;;;;;;;8.90;4.20;;;;;;;13.31;61.27;100031.88;4971074;28;98048;-81
2022/05/23 04:07:53;;;;;;;10.63;4.95;;;;;;;13.42;61.14;100022.59;4970687;28;97906;-81
2022/05/23 04:10:35;;;;;;;21.55;5.78;;;;;;;13.54;60.90;100033.38;4971540;28;101129;-80
2022/05/23 04:13:03;;;;;;;22.42;5.63;;;;;;;13.56;60.75;100036.78;4954318;28;97513;-81
2022/05/23 04:15:29;;;;;;;9.13;4.38;;;;;;;13.72;60.39;100036.84;4970634;28;97322;-80
2022/05/23 04:17:55;;;;;;;9.30;4.22;;;;;;;13.71;59.99;100042.22;4953147;28;101396;-81
2022/05/23 04:20:23;;;;;;;6.57;4.10;;;;;;;13.73;60.35;100040.34;4952393;28;101301;-81
2022/05/23 04:23:01;;;;;;;12.35;5.35;;;;;;;13.88;59.64;100049.28;4975519;28;97158;-80
2022/05/23 04:25:28;;;;;;;7.50;4.25;;;;;;;13.96;59.89;100044.41;4970636;28;98388;-80
2022/05/23 04:27:55;;;;;;;7.40;4.25;;;;;;;14.14;59.13;100045.25;4970101;28;101567;-81
2022/05/23 04:30:21;;;;;;;8.50;4.00;;;;;;;14.02;59.30;100057.28;4954109;28;99139;-80
2022/05/23 04:35:33;;;;;;;8.55;4.53;;;;;;;14.22;59.01;100058.88;4990944;28;96986;-80
2022/05/23 04:38:01;;;;;;;11.32;5.13;;;;;;;14.50;58.38;100060.91;4976947;28;101762;-81
2022/05/23 04:40:31;;;;;;;6.57;4.63;;;;;;;14.53;58.15;100065.19;4974923;28;102574;-80
2022/05/23 04:43:00;;;;;;;5.82;3.80;;;;;;;14.83;57.90;100060.00;4962939;28;97001;-81
2022/05/23 04:45:25;;;;;;;5.80;4.10;;;;;;;14.93;57.78;100054.13;4973724;28;97122;-81
2022/05/23 04:50:56;;;;;;;7.95;3.85;;;;;;;15.50;56.45;100058.78;4988391;28;98108;-81
2022/05/23 04:53:25;;;;;;;8.45;3.95;;;;;;;15.64;56.23;100057.97;4955017;28;97274;-80
2022/05/23 04:56:01;;;;;;;12.13;4.63;;;;;;;15.94;55.20;100055.34;4997936;28;98817;-81
2022/05/23 04:58:28;;;;;;;10.35;4.53;;;;;;;15.98;55.18;100054.22;4972237;28;101422;-81
2022/05/23 05:00:54;;;;;;;8.65;3.90;;;;;;;16.14;54.66;100051.47;4957677;28;101024;-81
2022/05/23 05:03:20;;;;;;;10.32;4.40;;;;;;;16.22;54.45;100051.84;4949948;28;97549;-80
2022/05/23 05:05:48;;;;;;;16.80;4.65;;;;;;;16.36;54.38;100050.16;4974039;28;97563;-81
2022/05/23 05:08:14;;;;;;;10.23;4.50;;;;;;;16.59;53.76;100030.16;4973044;28;101392;-79
2022/05/23 05:10:45;;;;;;;9.27;4.50;;;;;;;16.83;53.29;100046.31;4983612;28;101461;-80
2022/05/23 05:13:11;;;;;;;12.25;4.07;;;;;;;16.94;52.95;100049.13;4970848;28;97261;-80
2022/05/23 05:15:36;;;;;;;7.05;4.38;;;;;;;17.08;52.19;100058.84;4973345;28;97280;-80
2022/05/23 05:18:04;;;;;;;10.05;5.00;;;;;;;17.04;52.49;100055.53;4957054;28;101697;-76
2022/05/23 05:20:34;;;;;;;9.48;4.38;;;;;;;17.18;52.26;100033.41;4973617;28;101285;-76
2022/05/23 05:23:00;;;;;;;15.13;5.20;;;;;;;17.26;51.97;100051.50;4990391;28;96861;-74
2022/05/23 05:25:31;;;;;;;10.13;4.32;;;;;;;17.56;51.17;100049.44;4986512;28;97448;-76
2022/05/23 05:28:00;;;;;;;11.02;5.05;;;;;;;18.06;50.55;100057.59;4973060;28;101729;-74
2022/05/23 05:30:26;;;;;;;9.85;4.50;;;;;;;18.36;49.41;100056.41;4956086;28;101288;-75
2022/05/23 05:33:09;;;;;;;7.93;4.65;;;;;;;18.59;48.34;100029.06;4957107;28;96833;-75
2022/05/23 05:35:39;;;;;;;7.60;4.60;;;;;;;19.02;48.15;100054.34;4983282;28;98105;-76
2022/05/23 05:38:13;;;;;;;7.40;4.55;;;;;;;19.66;46.83;100049.56;4983290;28;98316;-75
2022/05/23 05:40:40;;;;;;;10.82;4.93;;;;;;;20.56;44.85;100034.53;4981712;28;102062;-75
2022/05/23 05:43:13;;;;;;;7.90;5.43;;;;;;;20.83;43.47;100049.28;4964878;28;97388;-73
2022/05/23 05:45:44;;;;;;;8.63;4.72;;;;;;;21.76;42.11;100045.16;4966188;28;96911;-74
2022/05/23 05:48:20;;;;;;;11.50;4.38;;;;;;;23.36;39.09;100040.84;4961842;28;99229;-72
2022/05/23 05:50:47;;;;;;;7.70;4.30;;;;;;;23.86;38.24;100034.47;4969562;28;98218;-83
2022/05/23 05:53:20;;;;;;;11.07;5.68;;;;;;;24.82;36.30;100032.41;4963769;28;97447;-82
2022/05/23 05:55:47;;;;;;;6.10;4.00;;;;;;;25.11;36.21;100009.88;4980129;28;97317;-80
2022/05/23 05:58:15;;;;;;;5.07;4.47;;;;;;;25.60;34.63;100032.66;4945232;28;101706;-81
2022/05/23 06:00:48;;;;;;;7.68;4.28;;;;;;;26.01;34.20;100013.31;4984269;28;98619;-80
2022/05/23 06:03:15;;;;;;;6.70;3.92;;;;;;;26.58;33.31;100013.59;4959810;28;96860;-81
2022/05/23 06:11:37;;;;;;;7.35;5.03;;;;;;;28.66;30.60;100001.38;4984223;28;102095;-80
2022/05/23 06:14:16;;;;;;;6.43;4.05;;;;;;;29.22;29.83;100006.59;4972095;28;98221;-82
2022/05/23 06:16:44;;;;;;;7.75;4.30;;;;;;;29.83;29.06;100001.19;4956222;28;97686;-81
2022/05/23 06:19:19;;;;;;;7.57;4.32;;;;;;;30.18;28.19;100001.47;4969496;28;101165;-82
2022/05/23 06:22:05;;;;;;;5.47;3.90;;;;;;;29.42;28.68;99998.84;4973044;28;97154;-81
2022/05/23 06:24:32;;;;;;;7.28;3.80;;;;;;;29.64;28.88;99996.28;4954720;28;97511;-79
2022/05/23 06:27:06;;;;;;;6.90;4.25;;;;;;;29.63;28.77;99983.81;4969436;28;96838;-78
2022/05/23 06:29:35;;;;;;;6.65;4.72;;;;;;;30.10;27.65;99996.16;4979732;28;98000;-79
2022/05/23 06:32:21;;;;;;;7.32;3.90;;;;;;;30.40;27.68;99995.16;4989398;28;98988;-79
2022/05/23 06:34:47;;;;;;;7.13;4.80;;;;;;;30.49;27.19;99995.03;4969657;28;97845;-79
2022/05/23 06:37:13;;;;;;;4.30;3.63;;;;;;;30.70;27.70;99994.25;4971264;28;96919;-78
2022/05/23 06:39:39;;;;;;;6.03;3.80;;;;;;;30.23;28.30;99983.69;4972979;28;101548;-78
2022/05/23 06:42:34;;;;;;;4.97;3.92;;;;;;;30.36;27.48;99999.25;4970897;28;99287;-79
2022/05/23 06:45:31;;;;;;;4.93;3.47;;;;;;;31.00;27.03;99995.00;4975984;28;97814;-80
2022/05/23 06:48:15;;;;;;;5.03;3.70;;;;;;;31.42;26.53;99986.06;4971578;28;97506;-80
2022/05/23 06:50:52;;;;;;;5.82;3.35;;;;;;;31.81;26.48;99984.66;4951106;28;99612;-79
2022/05/23 06:53:21;;;;;;;7.03;3.35;;;;;;;31.62;26.32;99982.66;4954637;28;101215;-77
2022/05/23 06:56:10;;;;;;;3.97;3.25;;;;;;;32.33;25.71;99977.88;4964337;28;96977;-78
2022/05/23 06:58:36;;;;;;;4.63;3.97;;;;;;;32.51;25.01;99977.34;4955379;28;96927;-78
2022/05/23 07:01:02;;;;;;;5.50;3.65;;;;;;;32.67;24.70;99974.28;4976259;28;102166;-77
2022/05/23 07:03:51;;;;;;;7.65;3.45;;;;;;;32.24;25.25;99963.66;4974334;28;98892;-77
2022/05/23 07:14:41;;;;;;;6.85;2.88;;;;;;;32.99;24.21;99952.00;4966400;28;102230;-77
2022/05/23 07:17:07;;;;;;;5.28;3.55;;;;;;;32.92;24.03;99947.34;4966364;28;96842;-77
2022/05/23 07:19:51;;;;;;;7.53;3.15;;;;;;;32.40;23.87;99931.75;4966118;28;96828;-78
2022/05/23 07:22:19;;;;;;;6.03;3.28;;;;;;;32.76;23.84;99934.19;4943818;28;101181;-79
2022/05/23 07:24:47;;;;;;;5.07;2.88;;;;;;;31.27;24.84;99939.16;4981905;28;100899;-76
2022/05/23 07:27:17;;;;;;;5.03;3.20;;;;;;;32.14;24.24;99925.16;4948037;28;97103;-76
2022/05/23 07:29:43;;;;;;;4.63;3.05;;;;;;;32.13;24.12;99930.81;4977266;28;97160;-76
2022/05/23 07:32:15;;;;;;;3.17;2.30;;;;;;;32.58;23.99;99925.75;4951482;28;100667;-76
2022/05/23 07:34:43;;;;;;;4.25;2.53;;;;;;;32.97;22.79;99929.59;4955545;28;101588;-77
2022/05/23 07:37:10;;;;;;;3.40;2.15;;;;;;;33.45;22.57;99927.53;4970058;28;97473;-76
2022/05/23 07:39:37;;;;;;;4.82;2.50;;;;;;;33.11;23.04;99924.00;4972850;28;98555;-76
2022/05/23 07:42:23;;;;;;;7.22;2.42;;;;;;;32.35;23.36;99915.22;4968303;28;97164;-79
2022/05/23 07:44:49;;;;;;;3.75;1.90;;;;;;;31.71;23.12;99924.50;4951426;28;98959;-76
2022/05/23 07:47:17;;;;;;;2.17;1.80;;;;;;;32.69;22.32;99923.28;4985530;28;96905;-77
2022/05/23 07:49:53;;;;;;;2.47;1.95;;;;;;;32.52;22.68;99919.28;4964458;28;97247;-77
2022/05/23 07:52:18;;;;;;;4.72;2.28;;;;;;;32.38;22.72;99912.13;4987703;28;100993;-77
2022/05/23 08:00:37;;;;;;;4.70;2.70;;;;;;;31.54;24.20;99923.97;4968724;28;96914;-79
2022/05/23 08:03:17;;;;;;;4.22;2.95;;;;;;;32.04;23.83;99918.44;4956405;28;101742;-80
2022/05/23 08:05:48;;;;;;;3.97;2.42;;;;;;;31.63;24.06;99911.94;4956538;28;100725;-77
2022/05/23 08:08:16;;;;;;;2.42;1.90;;;;;;;32.94;23.26;99906.41;4970360;28;97156;-77
2022/05/23 08:10:42;;;;;;;4.53;1.95;;;;;;;33.27;22.82;99903.69;4954429;28;97353;-77
2022/05/23 08:13:11;;;;;;;3.45;1.75;;;;;;;33.65;22.29;99908.47;4970136;28;101519;-79
2022/05/23 08:15:40;;;;;;;6.97;2.60;;;;;;;33.59;22.39;99890.28;4941051;28;101488;-85
2022/05/23 08:18:11;;;;;;;4.80;2.42;;;;;;;33.36;22.30;99907.03;4955120;28;97112;-84
2022/05/23 08:20:44;;;;;;;3.17;2.33;;;;;;;33.58;22.44;99907.69;4955423;28;97607;-84
2022/05/23 08:23:10;;;;;;;5.22;2.10;;;;;;;32.84;22.68;99906.81;4952574;28;101190;-81
2022/05/23 08:25:43;;;;;;;3.13;2.10;;;;;;;33.47;21.67;99900.97;4972486;28;101026;-84
2022/05/23 08:28:09;;;;;;;3.38;2.10;;;;;;;33.92;21.49;99883.91;4975170;28;97392;-85
2022/05/23 08:30:36;;;;;;;5.28;1.95;;;;;;;33.32;22.03;99897.63;4972122;28;97796;-82
2022/05/23 08:33:27;;;;;;;4.30;1.98;;;;;;;34.28;21.80;99913.31;4974188;28;97880;-83
2022/05/23 08:36:14;;;;;;;6.55;2.22;;;;;;;33.92;21.07;99873.88;4981966;28;98114;-83
2022/05/23 08:38:40;;;;;;;4.25;2.13;;;;;;;33.10;22.03;99910.59;4972465;28;97283;-84
2022/05/23 08:41:19;;;;;;;6.20;2.25;;;;;;;32.01;22.96;99892.56;4969212;28;97396;-81
2022/05/23 08:44:10;;;;;;;3.45;2.33;;;;;;;31.89;23.17;99875.16;4952913;28;102098;-83
2022/05/23 08:47:08;;;;;;;3.35;2.22;;;;;;;32.01;22.99;99884.41;4984031;28;101480;-81
2022/05/23 08:50:03;;;;;;;3.08;2.20;;;;;;;32.64;22.44;99884.22;4950270;28;97131;-83
2022/05/23 08:52:45;;;;;;;3.45;2.10;;;;;;;32.84;22.13;99892.38;4969516;28;97382;-81
2022/05/23 08:55:43;;;;;;;5.93;2.50;;;;;;;32.13;22.86;99880.06;4986581;28;98415;-82
2022/05/23 08:58:34;;;;;;;6.20;2.42;;;;;;;31.53;23.28;99840.94;4970877;28;97785;-81
2022/05/23 09:01:08;;;;;;;3.83;2.17;;;;;;;30.91;24.12;99866.94;4970734;28;97051;-81
2022/05/23 09:03:44;;;;;;;3.63;2.20;;;;;;;30.99;23.83;99850.56;4959524;28;97490;-83
2022/05/23 09:06:16;;;;;;;5.32;2.22;;;;;;;30.97;23.92;99865.31;4955569;28;100779;-83
2022/05/23 09:08:56;;;;;;;3.13;1.90;;;;;;;30.33;24.18;99866.97;4970442;28;97875;-82
2022/05/23 09:11:34;;;;;;;3.88;2.13;;;;;;;29.63;24.93;99849.44;4953531;28;96686;-82
2022/05/23 09:14:00;;;;;;;3.35;2.05;;;;;;;29.65;25.67;99857.38;4967774;28;96900;-82
2022/05/23 09:16:33;;;;;;;3.97;1.95;;;;;;;29.52;24.69;99858.81;4967388;28;98609;-82
2022/05/23 09:19:02;;;;;;;4.13;1.45;;;;;;;28.89;25.33;99858.25;4985942;28;97177;-84
2022/05/23 09:24:15;;;;;;;2.63;1.50;;;;;;;27.54;26.61;99841.41;4977308;28;97780;-87
2022/05/23 09:26:40;;;;;;;4.30;1.63;;;;;;;28.02;26.60;99843.31;4976432;28;100011;-88
2022/05/23 09:29:08;;;;;;;7.47;2.00;;;;;;;28.02;26.39;99846.00;4958062;28;100040;-88
2022/05/23 09:31:49;;;;;;;5.20;1.90;;;;;;;27.64;27.12;99838.53;4972231;28;97609;-89
2022/05/23 09:34:43;;;;;;;2.53;1.48;;;;;;;27.34;27.08;99833.91;4958542;28;96957;-87
2022/05/23 09:37:37;;;;;;;2.67;1.75;;;;;;;27.35;27.35;99825.66;5002905;28;101137;-89
2022/05/23 09:40:09;;;;;;;3.60;1.55;;;;;;;27.30;28.20;99834.25;5009647;28;98368;-88
2022/05/23 09:48:16;;;;;;;3.83;1.50;;;;;;;26.76;27.40;99812.44;4989105;28;97503;-90
2022/05/23 09:50:53;;;;;;;3.88;1.38;;;;;;;25.63;28.74;99838.88;4958250;28;100320;-90
2022/05/23 09:53:52;;;;;;;3.45;1.33;;;;;;;25.45;28.89;99840.75;4974541;28;96721;-90
2022/05/23 09:56:38;;;;;;;3.30;1.58;;;;;;;25.94;28.76;99828.41;4955363;28;97009;-88
2022/05/23 09:59:28;;;;;;;4.40;1.52;;;;;;;26.06;28.09;99804.75;4973576;28;98535;-88
2022/05/23 10:01:54;;;;;;;4.80;1.27;;;;;;;26.03;27.91;99796.19;4968162;28;101367;-90
2022/05/23 10:04:30;;;;;;;7.47;1.45;;;;;;;25.64;28.70;99818.19;4969192;28;97368;-89
2022/05/23 10:06:56;;;;;;;2.03;1.40;;;;;;;24.74;29.23;99758.59;4968667;28;97307;-90
2022/05/23 10:09:33;;;;;;;1.83;1.20;;;;;;;24.88;29.67;99792.91;4967018;28;100458;-90
2022/05/23 10:12:20;;;;;;;2.75;1.40;;;;;;;25.30;29.94;99810.97;4972645;28;97118;-90
2022/05/23 10:14:52;;;;;;;3.78;1.42;;;;;;;24.97;29.79;99810.75;4953225;28;97199;-89
2022/05/23 10:17:28;;;;;;;3.42;1.10;;;;;;;24.26;30.62;99794.69;4966273;28;96861;-87
2022/05/23 10:20:25;;;;;;;5.50;1.63;;;;;;;24.30;30.54;99799.59;4983718;28;100431;-91
2022/05/23 10:23:00;;;;;;;2.40;1.30;;;;;;;23.34;31.59;99792.94;4981766;28;98054;-87
2022/05/23 10:25:29;;;;;;;5.47;1.27;;;;;;;22.83;31.97;99795.00;4950430;28;97156;-85
2022/05/23 10:28:02;;;;;;;1.73;1.30;;;;;;;22.76;31.36;99796.59;4962720;28;96926;-91
2022/05/23 10:30:32;;;;;;;3.47;1.48;;;;;;;22.59;32.19;99788.28;4951091;28;99833;-84
2022/05/23 10:33:08;;;;;;;2.72;1.30;;;;;;;22.51;32.78;99772.09;4954341;28;101265;-89
2022/05/23 10:35:44;;;;;;;4.18;1.30;;;;;;;22.53;32.54;99788.84;4960286;28;97118;-89
2022/05/23 10:44:25;;;;;;;4.03;1.30;;;;;;;21.98;33.14;99793.03;4977959;28;101452;-89
2022/05/23 10:46:57;;;;;;;1.58;1.20;;;;;;;22.39;32.61;99775.91;4960331;28;97210;-89
2022/05/23 10:49:43;;;;;;;2.65;1.30;;;;;;;22.34;32.55;99760.31;4960391;28;97958;-89
2022/05/23 10:52:18;;;;;;;2.20;1.30;;;;;;;22.65;32.85;99773.50;4982888;28;100574;-87
2022/05/23 10:55:19;;;;;;;5.57;1.30;;;;;;;22.43;32.59;99771.13;4979163;28;97964;-87
2022/05/23 10:57:52;;;;;;;4.20;2.28;;;;;;;22.23;32.22;99762.28;4976698;28;96713;-83
2022/05/23 11:00:22;;;;;;;3.03;1.27;;;;;;;22.14;32.30;99731.84;4967769;28;97463;-81
2022/05/23 11:02:56;;;;;;;1.85;1.15;;;;;;;22.31;31.94;99757.06;4952428;28;101587;-90
2022/05/23 11:05:59;;;;;;;1.52;1.00;;;;;;;22.63;32.07;99758.56;4973688;28;100194;-90
2022/05/23 11:08:30;;;;;;;3.05;1.48;;;;;;;22.59;32.56;99760.69;4966212;28;98025;-79
2022/05/23 11:11:06;;;;;;;2.45;1.23;;;;;;;22.61;31.79;99758.72;4977197;28;97202;-82
2022/05/23 11:13:38;;;;;;;4.30;1.27;;;;;;;22.63;31.63;99754.09;4969190;28;99596;-83
2022/05/23 11:16:12;;;;;;;2.60;1.20;;;;;;;22.53;32.39;99738.03;4967556;28;101651;-83
2022/05/23 11:19:13;;;;;;;7.30;1.60;;;;;;;22.55;33.22;99752.13;4958324;28;98150;-84
2022/05/23 11:22:02;;;;;;;2.22;1.10;;;;;;;22.40;32.78;99750.00;5000849;28;97113;-84
2022/05/23 11:24:38;;;;;;;1.25;1.00;;;;;;;22.42;32.33;99746.22;4988551;28;97897;-85
2022/05/23 11:35:48;;;;;;;3.42;1.20;;;;;;;22.32;32.67;99732.03;4988326;28;97754;-84
2022/05/23 11:38:16;;;;;;;4.13;1.30;;;;;;;22.23;32.49;99727.53;4972680;28;97878;-83
2022/05/23 11:41:06;;;;;;;3.75;1.33;;;;;;;22.37;32.28;99730.63;4971481;28;97096;-83
2022/05/23 11:43:32;;;;;;;7.22;1.23;;;;;;;22.24;31.69;99732.72;4972287;28;97167;-83
2022/05/23 11:46:02;;;;;;;8.02;1.33;;;;;;;22.41;32.02;99725.81;4972006;28;101508;-85
2022/05/23 11:48:34;;;;;;;2.00;1.13;;;;;;;22.43;31.96;99725.66;4954766;28;99991;-87
2022/05/23 11:51:12;;;;;;;2.95;1.10;;;;;;;22.41;31.63;99735.69;4988177;28;97101;-83
2022/05/23 11:53:57;;;;;;;2.58;1.30;;;;;;;22.56;31.64;99729.72;4988226;28;97037;-83
2022/05/23 11:56:43;;;;;;;1.98;0.90;;;;;;;22.67;30.43;99723.38;4971797;28;101331;-83
2022/05/23 11:59:11;;;;;;;0.93;0.80;;;;;;;22.55;30.80;99708.50;4985590;28;101147;-83
2022/05/23 12:01:38;;;;;;;5.55;1.65;;;;;;;22.68;31.39;99710.84;4965310;28;97404;-85
2022/05/23 12:04:03;;;;;;;5.72;1.23;;;;;;;22.66;31.43;99704.78;4964801;28;97228;-83
2022/05/23 12:06:29;;;;;;;3.17;1.30;;;;;;;22.79;31.70;99703.50;4982008;28;98139;-87
2022/05/23 12:08:57;;;;;;;3.53;1.77;;;;;;;22.75;31.93;99699.44;4987373;28;97989;-84
2022/05/23 12:11:28;;;;;;;2.10;1.45;;;;;;;22.58;31.25;99698.34;4988529;28;97288;-84
2022/05/23 12:13:58;;;;;;;2.22;1.27;;;;;;;22.37;31.29;99670.97;4971843;28;97094;-84
2022/05/23 12:16:37;;;;;;;3.15;1.00;;;;;;;22.42;31.91;99689.22;4980019;28;98094;-86
2022/05/23 12:19:28;;;;;;;3.97;1.20;;;;;;;22.61;31.87;99686.53;4979506;28;98116;-83
2022/05/23 12:22:20;;;;;;;2.22;1.10;;;;;;;22.70;31.23;99674.94;4980847;28;100169;-83
2022/05/23 12:24:58;;;;;;;2.17;1.40;;;;;;;22.58;31.94;99670.75;4967341;28;97202;-83
2022/05/23 12:27:34;;;;;;;1.85;1.35;;;;;;;22.34;31.96;99652.50;4981958;28;100790;-84
2022/05/23 12:30:35;;;;;;;2.47;1.10;;;;;;;22.31;32.02;99668.84;4949257;28;101479;-84
2022/05/23 12:33:01;;;;;;;3.05;1.00;;;;;;;22.37;32.00;99657.59;4998314;28;97428;-83
2022/05/23 12:35:30;;;;;;;7.03;1.77;;;;;;;22.55;31.47;99665.72;4973704;28;96996;-83
2022/05/23 12:38:17;;;;;;;5.25;1.58;;;;;;;22.67;31.46;99651.16;4960924;28;101889;-84
2022/05/23 12:41:07;;;;;;;6.85;1.67;;;;;;;22.42;30.91;99641.94;4990689;28;98034;-83
2022/05/23 12:44:03;;;;;;;2.70;1.27;;;;;;;22.31;31.36;99639.44;4970763;28;96780;-87
2022/05/23 12:46:42;;;;;;;2.75;1.25;;;;;;;22.43;30.86;99616.91;4968730;28;97321;-85
2022/05/23 12:49:28;;;;;;;3.90;1.13;;;;;;;22.63;31.26;99631.06;4970056;28;101654;-84
2022/05/23 12:51:57;;;;;;;7.05;1.10;;;;;;;22.64;31.61;99639.91;4969618;28;102224;-85
2022/05/23 12:54:33;;;;;;;3.65;1.20;;;;;;;22.71;31.10;99624.97;4991050;28;97097;-83
2022/05/23 12:57:21;;;;;;;2.92;1.30;;;;;;;22.54;31.51;99616.72;4960832;28;97343;-83